Kankan Airport


Codes: GUXN/KNN
Name: Kankan Airport
City: Kankan
Country: Guinea
Elevation: 1234 ft.
Wikipedia:

Photos at Kankan Airport


   Photos courtesy of SpottingLog. You can add your own sightings and photos by signing up for a free trial today.



No photos found.

Weather at Kankan Airport


Time (UTC)DescriptionTempratureWindCloud coverageVisibilityPressureHumidity
21-Jun-2024 15:00Broken Clouds32°C2 mph, SE59%10000m1012hPa49%
21-Jun-2024 18:00Broken Clouds31°C4 mph, S56%10000m1010hPa56%
21-Jun-2024 21:00Overcast Clouds27°C4 mph, S89%10000m1012hPa76%
22-Jun-2024 00:00Light Rain25°C4 mph, SW47%10000m1013hPa81%
22-Jun-2024 03:00Light Rain23°C2 mph, SW99%10000m1012hPa89%
22-Jun-2024 06:00Moderate Rain22°C2 mph, S99%10000m1014hPa96%
22-Jun-2024 09:00Light Rain24°C7 mph, SW100%10000m1014hPa90%
22-Jun-2024 12:00Overcast Clouds29°C9 mph, SW99%10000m1012hPa63%
22-Jun-2024 15:00Overcast Clouds34°C2 mph, S96%10000m1010hPa45%
22-Jun-2024 18:00Broken Clouds31°C2 mph, NW81%10000m1010hPa58%
22-Jun-2024 21:00Broken Clouds27°C4 mph, SW56%10000m1011hPa73%
23-Jun-2024 00:00Light Rain23°C9 mph, SW47%10000m1013hPa92%
23-Jun-2024 03:00Light Rain23°C4 mph, SW16%10000m1011hPa95%
23-Jun-2024 06:00Light Rain22°C4 mph, SW28%10000m1012hPa96%
23-Jun-2024 09:00Overcast Clouds24°C7 mph, SW85%10000m1014hPa88%
23-Jun-2024 12:00Overcast Clouds29°C4 mph, SW85%10000m1013hPa65%
23-Jun-2024 15:00Overcast Clouds33°C4 mph, S98%10000m1010hPa50%
23-Jun-2024 18:00Overcast Clouds30°C7 mph, S96%10000m1010hPa61%
23-Jun-2024 21:00Scattered Clouds26°C7 mph, SW45%10000m1012hPa80%
24-Jun-2024 00:00Light Rain24°C4 mph, SW44%10000m1013hPa86%
24-Jun-2024 03:00Moderate Rain23°C2 mph, W86%10000m1012hPa94%
24-Jun-2024 06:00Overcast Clouds22°C7 mph, SW93%10000m1012hPa96%
24-Jun-2024 09:00Overcast Clouds25°C7 mph, SW100%10000m1013hPa85%
24-Jun-2024 12:00Overcast Clouds31°C2 mph, SW100%10000m1013hPa60%
24-Jun-2024 15:00Light Rain31°C0 mph, NW100%10000m1011hPa58%
24-Jun-2024 18:00Overcast Clouds30°C2 mph, SW98%10000m1010hPa64%
24-Jun-2024 21:00Overcast Clouds26°C4 mph, SW100%10000m1012hPa79%
25-Jun-2024 00:00Overcast Clouds25°C4 mph, SW95%10000m1012hPa86%
25-Jun-2024 03:00Light Rain24°C7 mph, SW22%10000m1011hPa89%
25-Jun-2024 06:00Light Rain23°C4 mph, SW40%10000m1012hPa96%
25-Jun-2024 09:00Overcast Clouds25°C9 mph, SW95%10000m1014hPa85%
25-Jun-2024 12:00Broken Clouds31°C4 mph, W81%10000m1013hPa57%
25-Jun-2024 15:00Broken Clouds34°C4 mph, NW51%10000m1009hPa46%
25-Jun-2024 18:00Light Rain29°C4 mph, SW70%10000m1009hPa68%
25-Jun-2024 21:00Broken Clouds26°C7 mph, SW70%10000m1011hPa76%
26-Jun-2024 00:00Light Rain25°C4 mph, SW74%10000m1012hPa86%
26-Jun-2024 03:00Light Rain23°C7 mph, SW99%10000m1011hPa92%
26-Jun-2024 06:00Very Heavy Rain20°C7 mph, NW99%5824m1013hPa98%
26-Jun-2024 09:00Light Rain21°C4 mph, S100%10000m1012hPa93%
26-Jun-2024 12:00Overcast Clouds26°C7 mph, W100%10000m1013hPa70%